METAR

METAR

SAPL62 EPRA 241800
METAR EPRA 241800Z 27006KT CAVOK 16/07 Q1012=

TAF

TAF

FCPL62 EPRA 241700 AAA
TAF AMD EPRA 241800Z 2418/2503 CNL=

Witamy na stronie Radom Meteo

zawsze aktualna prognoza dla pilotów 

Czym się zajmujemy

W zakresie osłony meteorologicznej realizujemy:

  • wykonywanie pomiarów i obserwacji meteorologicznych;
  • przygotowane prognoz meteorologicznych;
  • opracowywanie ostrzeżeń meteorologicznych;
  • informowanie o warunkach meteorologicznych;
  • dystrybucję informacji meteorologicznych;
  • opracowywanie danych klimatycznych.